sensor_id;sensor_type;location;lat;lon;timestamp;temperature;humidity
16635;DHT22;8431;52.458;9.998;2023-02-08T00:00:56;-4.50;99.90
16635;DHT22;8431;52.458;9.998;2023-02-08T00:03:23;-4.50;99.90
16635;DHT22;8431;52.458;9.998;2023-02-08T00:05:53;-4.40;99.90
16635;DHT22;8431;52.458;9.998;2023-02-08T00:08:20;-4.50;99.90
16635;DHT22;8431;52.458;9.998;2023-02-08T00:10:48;-4.50;99.90
16635;DHT22;8431;52.458;9.998;2023-02-08T00:13:17;-4.50;99.90
16635;DHT22;8431;52.458;9.998;2023-02-08T00:15:45;-4.40;99.90
16635;DHT22;8431;52.458;9.998;2023-02-08T00:18:12;-4.30;99.90
16635;DHT22;8431;52.458;9.998;2023-02-08T00:20:42;-4.30;99.90
16635;DHT22;8431;52.458;9.998;2023-02-08T00:23:11;-4.30;99.90
16635;DHT22;8431;52.458;9.998;2023-02-08T00:25:39;-4.30;99.90
16635;DHT22;8431;52.458;9.998;2023-02-08T00:28:11;-4.20;99.90
16635;DHT22;8431;52.458;9.998;2023-02-08T00:30:39;-4.30;99.90
16635;DHT22;8431;52.458;9.998;2023-02-08T00:33:06;-4.20;99.90
16635;DHT22;8431;52.458;9.998;2023-02-08T00:35:35;-4.30;99.90
16635;DHT22;8431;52.458;9.998;2023-02-08T00:38:02;-4.30;99.90
16635;DHT22;8431;52.458;9.998;2023-02-08T00:40:30;-4.20;99.90
16635;DHT22;8431;52.458;9.998;2023-02-08T00:42:57;-4.20;99.90
16635;DHT22;8431;52.458;9.998;2023-02-08T00:45:26;-4.20;99.90
16635;DHT22;8431;52.458;9.998;2023-02-08T00:47:53;-4.30;99.90
16635;DHT22;8431;52.458;9.998;2023-02-08T00:50:21;-4.40;99.90
16635;DHT22;8431;52.458;9.998;2023-02-08T00:52:48;-4.60;99.90
16635;DHT22;8431;52.458;9.998;2023-02-08T00:55:15;-4.70;99.90
16635;DHT22;8431;52.458;9.998;2023-02-08T00:57:44;-4.70;99.90
16635;DHT22;8431;52.458;9.998;2023-02-08T01:00:12;-4.80;99.90
16635;DHT22;8431;52.458;9.998;2023-02-08T01:02:40;-4.80;99.90
16635;DHT22;8431;52.458;9.998;2023-02-08T01:05:07;-4.80;99.90
16635;DHT22;8431;52.458;9.998;2023-02-08T01:07:35;-4.80;99.90
16635;DHT22;8431;52.458;9.998;2023-02-08T01:10:03;-4.80;99.90
16635;DHT22;8431;52.458;9.998;2023-02-08T01:12:31;-4.70;99.90
16635;DHT22;8431;52.458;9.998;2023-02-08T01:14:59;-4.70;99.90
16635;DHT22;8431;52.458;9.998;2023-02-08T01:17:26;-4.70;99.90
16635;DHT22;8431;52.458;9.998;2023-02-08T01:19:53;-4.70;99.90
16635;DHT22;8431;52.458;9.998;2023-02-08T01:22:20;-4.80;99.90
16635;DHT22;8431;52.458;9.998;2023-02-08T01:24:49;-4.80;99.90
16635;DHT22;8431;52.458;9.998;2023-02-08T01:27:16;-4.90;99.90
16635;DHT22;8431;52.458;9.998;2023-02-08T01:29:43;-4.80;99.90
16635;DHT22;8431;52.458;9.998;2023-02-08T01:32:11;-4.80;99.90
16635;DHT22;8431;52.458;9.998;2023-02-08T01:34:38;-4.90;99.90
16635;DHT22;8431;52.458;9.998;2023-02-08T01:37:05;-4.90;99.90
16635;DHT22;8431;52.458;9.998;2023-02-08T01:39:32;-4.90;99.90
16635;DHT22;8431;52.458;9.998;2023-02-08T01:41:59;-4.90;99.90
16635;DHT22;8431;52.458;9.998;2023-02-08T01:47:33;-4.90;99.90
16635;DHT22;8431;52.458;9.998;2023-02-08T01:50:00;-5.00;99.90
16635;DHT22;8431;52.458;9.998;2023-02-08T01:52:27;-4.90;99.90
16635;DHT22;8431;52.458;9.998;2023-02-08T01:54:57;-4.90;99.90
16635;DHT22;8431;52.458;9.998;2023-02-08T01:57:26;-4.90;99.90
16635;DHT22;8431;52.458;9.998;2023-02-08T01:59:57;-4.90;99.90
16635;DHT22;8431;52.458;9.998;2023-02-08T02:02:27;-4.90;99.90
16635;DHT22;8431;52.458;9.998;2023-02-08T02:04:55;-4.90;99.90
16635;DHT22;8431;52.458;9.998;2023-02-08T02:07:25;-4.90;99.90
16635;DHT22;8431;52.458;9.998;2023-02-08T02:09:59;-5.00;99.90
16635;DHT22;8431;52.458;9.998;2023-02-08T02:12:32;-5.00;99.90
16635;DHT22;8431;52.458;9.998;2023-02-08T02:15:02;-5.10;99.90
16635;DHT22;8431;52.458;9.998;2023-02-08T02:17:29;-5.10;99.90
16635;DHT22;8431;52.458;9.998;2023-02-08T02:20:02;-5.10;99.90
16635;DHT22;8431;52.458;9.998;2023-02-08T02:26:08;-5.10;99.90
16635;DHT22;8431;52.458;9.998;2023-02-08T02:29:06;-5.10;99.90
16635;DHT22;8431;52.458;9.998;2023-02-08T02:31:56;-5.00;99.90
16635;DHT22;8431;52.458;9.998;2023-02-08T02:34:30;-5.00;99.90
16635;DHT22;8431;52.458;9.998;2023-02-08T02:37:09;-5.00;99.90
16635;DHT22;8431;52.458;9.998;2023-02-08T02:39:44;-5.00;99.90
16635;DHT22;8431;52.458;9.998;2023-02-08T02:42:18;-4.90;99.90
16635;DHT22;8431;52.458;9.998;2023-02-08T02:45:08;-4.90;99.90
16635;DHT22;8431;52.458;9.998;2023-02-08T02:47:47;-4.90;99.90
16635;DHT22;8431;52.458;9.998;2023-02-08T02:50:21;-4.90;99.90
16635;DHT22;8431;52.458;9.998;2023-02-08T02:52:54;-4.90;99.90
16635;DHT22;8431;52.458;9.998;2023-02-08T02:55:25;-4.90;99.90
16635;DHT22;8431;52.458;9.998;2023-02-08T02:57:58;-4.90;99.90
16635;DHT22;8431;52.458;9.998;2023-02-08T03:00:28;-4.80;99.90
16635;DHT22;8431;52.458;9.998;2023-02-08T03:02:58;-4.90;99.90
16635;DHT22;8431;52.458;9.998;2023-02-08T03:05:27;-4.90;99.90
16635;DHT22;8431;52.458;9.998;2023-02-08T03:11:12;-4.90;99.90
16635;DHT22;8431;52.458;9.998;2023-02-08T03:13:51;-4.90;99.90
16635;DHT22;8431;52.458;9.998;2023-02-08T03:16:24;-5.00;99.90
16635;DHT22;8431;52.458;9.998;2023-02-08T03:19:04;-4.90;99.90
16635;DHT22;8431;52.458;9.998;2023-02-08T03:21:39;-4.90;99.90
16635;DHT22;8431;52.458;9.998;2023-02-08T03:24:17;-4.90;99.90
16635;DHT22;8431;52.458;9.998;2023-02-08T03:26:53;-4.90;99.90
16635;DHT22;8431;52.458;9.998;2023-02-08T03:29:27;-5.00;99.90
16635;DHT22;8431;52.458;9.998;2023-02-08T03:31:59;-4.90;99.90
16635;DHT22;8431;52.458;9.998;2023-02-08T03:34:33;-4.90;99.90
16635;DHT22;8431;52.458;9.998;2023-02-08T03:37:04;-4.90;99.90
16635;DHT22;8431;52.458;9.998;2023-02-08T03:39:35;-4.90;99.90
16635;DHT22;8431;52.458;9.998;2023-02-08T03:42:07;-4.80;99.90
16635;DHT22;8431;52.458;9.998;2023-02-08T03:44:37;-4.80;99.90
16635;DHT22;8431;52.458;9.998;2023-02-08T03:47:11;-4.90;99.90
16635;DHT22;8431;52.458;9.998;2023-02-08T03:49:43;-4.90;99.90
16635;DHT22;8431;52.458;9.998;2023-02-08T03:52:11;-4.90;99.90
16635;DHT22;8431;52.458;9.998;2023-02-08T03:54:41;-4.80;99.90
16635;DHT22;8431;52.458;9.998;2023-02-08T03:57:15;-4.80;99.90
16635;DHT22;8431;52.458;9.998;2023-02-08T03:59:47;-4.70;99.90
16635;DHT22;8431;52.458;9.998;2023-02-08T04:02:17;-4.70;99.90
16635;DHT22;8431;52.458;9.998;2023-02-08T04:04:49;-4.60;99.90
16635;DHT22;8431;52.458;9.998;2023-02-08T04:07:17;-4.60;99.90
16635;DHT22;8431;52.458;9.998;2023-02-08T04:09:45;-4.60;99.90
16635;DHT22;8431;52.458;9.998;2023-02-08T04:12:12;-4.60;99.90
16635;DHT22;8431;52.458;9.998;2023-02-08T04:14:39;-4.60;99.90
16635;DHT22;8431;52.458;9.998;2023-02-08T04:17:07;-4.60;99.90
16635;DHT22;8431;52.458;9.998;2023-02-08T04:19:34;-4.50;99.90
16635;DHT22;8431;52.458;9.998;2023-02-08T04:22:02;-4.50;99.90
16635;DHT22;8431;52.458;9.998;2023-02-08T04:24:33;-4.50;99.90
16635;DHT22;8431;52.458;9.998;2023-02-08T04:27:00;-4.60;99.90
16635;DHT22;8431;52.458;9.998;2023-02-08T04:29:27;-4.70;99.90
16635;DHT22;8431;52.458;9.998;2023-02-08T04:31:54;-4.80;99.90
16635;DHT22;8431;52.458;9.998;2023-02-08T04:34:21;-4.80;99.90
16635;DHT22;8431;52.458;9.998;2023-02-08T04:36:48;-4.80;99.90
16635;DHT22;8431;52.458;9.998;2023-02-08T04:39:18;-4.90;99.90
16635;DHT22;8431;52.458;9.998;2023-02-08T04:41:45;-4.90;99.90
16635;DHT22;8431;52.458;9.998;2023-02-08T04:44:13;-4.90;99.90
16635;DHT22;8431;52.458;9.998;2023-02-08T04:46:40;-5.00;99.90
16635;DHT22;8431;52.458;9.998;2023-02-08T04:49:07;-5.10;99.90
16635;DHT22;8431;52.458;9.998;2023-02-08T04:51:34;-5.20;99.90
16635;DHT22;8431;52.458;9.998;2023-02-08T04:54:07;-5.20;99.90
16635;DHT22;8431;52.458;9.998;2023-02-08T04:56:36;-5.10;99.90
16635;DHT22;8431;52.458;9.998;2023-02-08T04:59:03;-5.10;99.90
16635;DHT22;8431;52.458;9.998;2023-02-08T05:01:30;-5.10;99.90
16635;DHT22;8431;52.458;9.998;2023-02-08T05:03:57;-5.10;99.90
16635;DHT22;8431;52.458;9.998;2023-02-08T05:06:24;-5.20;99.90
16635;DHT22;8431;52.458;9.998;2023-02-08T05:08:51;-5.20;99.90
16635;DHT22;8431;52.458;9.998;2023-02-08T05:11:19;-5.10;99.90
16635;DHT22;8431;52.458;9.998;2023-02-08T05:13:48;-5.10;99.90
16635;DHT22;8431;52.458;9.998;2023-02-08T05:16:15;-5.10;99.90
16635;DHT22;8431;52.458;9.998;2023-02-08T05:18:42;-5.20;99.90
16635;DHT22;8431;52.458;9.998;2023-02-08T05:21:09;-5.10;99.90
16635;DHT22;8431;52.458;9.998;2023-02-08T05:23:36;-5.20;99.90
16635;DHT22;8431;52.458;9.998;2023-02-08T05:26:05;-5.20;99.90
16635;DHT22;8431;52.458;9.998;2023-02-08T05:28:32;-5.20;99.90
16635;DHT22;8431;52.458;9.998;2023-02-08T05:31:10;-5.20;99.90
16635;DHT22;8431;52.458;9.998;2023-02-08T05:33:37;-5.20;99.90
16635;DHT22;8431;52.458;9.998;2023-02-08T05:36:05;-5.20;99.90
16635;DHT22;8431;52.458;9.998;2023-02-08T05:38:32;-5.30;99.90
16635;DHT22;8431;52.458;9.998;2023-02-08T05:40:59;-5.30;99.90
16635;DHT22;8431;52.458;9.998;2023-02-08T05:43:26;-5.30;99.90
16635;DHT22;8431;52.458;9.998;2023-02-08T05:45:53;-5.30;99.90
16635;DHT22;8431;52.458;9.998;2023-02-08T05:48:22;-5.30;99.90
16635;DHT22;8431;52.458;9.998;2023-02-08T05:50:49;-5.30;99.90
16635;DHT22;8431;52.458;9.998;2023-02-08T05:53:16;-5.30;99.90
16635;DHT22;8431;52.458;9.998;2023-02-08T05:55:43;-5.30;99.90
16635;DHT22;8431;52.458;9.998;2023-02-08T05:58:11;-5.30;99.90
16635;DHT22;8431;52.458;9.998;2023-02-08T06:00:38;-5.30;99.90
16635;DHT22;8431;52.458;9.998;2023-02-08T06:03:06;-5.30;99.90
16635;DHT22;8431;52.458;9.998;2023-02-08T06:05:36;-5.30;99.90
16635;DHT22;8431;52.458;9.998;2023-02-08T06:08:04;-5.30;99.90
16635;DHT22;8431;52.458;9.998;2023-02-08T06:10:32;-5.30;99.90
16635;DHT22;8431;52.458;9.998;2023-02-08T06:12:59;-5.30;99.90
16635;DHT22;8431;52.458;9.998;2023-02-08T06:15:26;-5.40;99.90
16635;DHT22;8431;52.458;9.998;2023-02-08T06:17:53;-5.50;99.90
16635;DHT22;8431;52.458;9.998;2023-02-08T06:20:20;-5.50;99.90
16635;DHT22;8431;52.458;9.998;2023-02-08T06:22:49;-5.50;99.90
16635;DHT22;8431;52.458;9.998;2023-02-08T06:25:16;-5.40;99.90
16635;DHT22;8431;52.458;9.998;2023-02-08T06:27:46;-5.40;99.90
16635;DHT22;8431;52.458;9.998;2023-02-08T06:30:13;-5.50;99.90
16635;DHT22;8431;52.458;9.998;2023-02-08T06:32:40;-5.50;99.90
16635;DHT22;8431;52.458;9.998;2023-02-08T06:35:07;-5.50;99.90
16635;DHT22;8431;52.458;9.998;2023-02-08T06:37:34;-5.50;99.90
16635;DHT22;8431;52.458;9.998;2023-02-08T06:40:04;-5.50;99.90
16635;DHT22;8431;52.458;9.998;2023-02-08T06:42:31;-5.50;99.90
16635;DHT22;8431;52.458;9.998;2023-02-08T06:44:58;-5.50;99.90
16635;DHT22;8431;52.458;9.998;2023-02-08T06:47:27;-5.50;99.90
16635;DHT22;8431;52.458;9.998;2023-02-08T06:49:54;-5.50;99.90
16635;DHT22;8431;52.458;9.998;2023-02-08T06:52:21;-5.50;99.90
16635;DHT22;8431;52.458;9.998;2023-02-08T06:54:48;-5.40;99.90
16635;DHT22;8431;52.458;9.998;2023-02-08T06:57:16;-5.40;99.90
16635;DHT22;8431;52.458;9.998;2023-02-08T06:59:44;-5.40;99.90
16635;DHT22;8431;52.458;9.998;2023-02-08T07:02:12;-5.40;99.90
16635;DHT22;8431;52.458;9.998;2023-02-08T07:04:40;-5.40;99.90
16635;DHT22;8431;52.458;9.998;2023-02-08T07:07:07;-5.40;99.90
16635;DHT22;8431;52.458;9.998;2023-02-08T07:09:34;-5.30;99.90
16635;DHT22;8431;52.458;9.998;2023-02-08T07:12:02;-5.30;99.90
16635;DHT22;8431;52.458;9.998;2023-02-08T07:14:31;-5.20;99.90
16635;DHT22;8431;52.458;9.998;2023-02-08T07:16:59;-5.20;99.90
16635;DHT22;8431;52.458;9.998;2023-02-08T07:19:26;-5.20;99.90
16635;DHT22;8431;52.458;9.998;2023-02-08T07:21:53;-5.20;99.90
16635;DHT22;8431;52.458;9.998;2023-02-08T07:24:20;-5.20;99.90
16635;DHT22;8431;52.458;9.998;2023-02-08T07:26:48;-5.10;99.90
16635;DHT22;8431;52.458;9.998;2023-02-08T07:29:15;-5.10;99.90
16635;DHT22;8431;52.458;9.998;2023-02-08T07:31:43;-5.00;99.90
16635;DHT22;8431;52.458;9.998;2023-02-08T07:34:10;-5.00;99.90
16635;DHT22;8431;52.458;9.998;2023-02-08T07:36:37;-4.90;99.90
16635;DHT22;8431;52.458;9.998;2023-02-08T07:39:04;-4.90;99.90
16635;DHT22;8431;52.458;9.998;2023-02-08T07:41:31;-4.80;99.90
16635;DHT22;8431;52.458;9.998;2023-02-08T07:43:59;-4.70;99.90
16635;DHT22;8431;52.458;9.998;2023-02-08T07:46:26;-4.70;99.90
16635;DHT22;8431;52.458;9.998;2023-02-08T07:48:54;-4.70;99.90
16635;DHT22;8431;52.458;9.998;2023-02-08T07:51:21;-4.50;99.90
16635;DHT22;8431;52.458;9.998;2023-02-08T07:53:49;-4.40;99.90
16635;DHT22;8431;52.458;9.998;2023-02-08T07:56:16;-4.40;99.90
16635;DHT22;8431;52.458;9.998;2023-02-08T07:58:43;-4.40;99.90
16635;DHT22;8431;52.458;9.998;2023-02-08T08:01:10;-4.40;99.90
16635;DHT22;8431;52.458;9.998;2023-02-08T08:03:37;-4.40;99.90
16635;DHT22;8431;52.458;9.998;2023-02-08T08:06:06;-4.30;99.90
16635;DHT22;8431;52.458;9.998;2023-02-08T08:08:33;-4.30;99.90
16635;DHT22;8431;52.458;9.998;2023-02-08T08:11:00;-4.20;99.90
16635;DHT22;8431;52.458;9.998;2023-02-08T08:13:27;-4.10;99.90
16635;DHT22;8431;52.458;9.998;2023-02-08T08:15:54;-4.10;99.90
16635;DHT22;8431;52.458;9.998;2023-02-08T08:18:21;-4.10;99.90
16635;DHT22;8431;52.458;9.998;2023-02-08T08:20:48;-4.00;99.90
16635;DHT22;8431;52.458;9.998;2023-02-08T08:23:17;-4.00;99.90
16635;DHT22;8431;52.458;9.998;2023-02-08T08:25:44;-3.90;99.90
16635;DHT22;8431;52.458;9.998;2023-02-08T08:28:11;-3.80;99.90
16635;DHT22;8431;52.458;9.998;2023-02-08T08:30:42;-3.80;99.90
16635;DHT22;8431;52.458;9.998;2023-02-08T08:33:09;-3.70;99.90
16635;DHT22;8431;52.458;9.998;2023-02-08T08:35:36;-3.60;99.90
16635;DHT22;8431;52.458;9.998;2023-02-08T08:38:03;-3.60;99.90
16635;DHT22;8431;52.458;9.998;2023-02-08T08:40:31;-3.50;99.90
16635;DHT22;8431;52.458;9.998;2023-02-08T08:42:58;-3.50;99.90
16635;DHT22;8431;52.458;9.998;2023-02-08T08:45:25;-3.50;99.90
16635;DHT22;8431;52.458;9.998;2023-02-08T08:47:52;-3.40;99.90
16635;DHT22;8431;52.458;9.998;2023-02-08T08:50:19;-3.40;99.90
16635;DHT22;8431;52.458;9.998;2023-02-08T08:52:49;-3.30;99.90
16635;DHT22;8431;52.458;9.998;2023-02-08T08:55:16;-3.30;99.90
16635;DHT22;8431;52.458;9.998;2023-02-08T08:57:52;-3.20;99.90
16635;DHT22;8431;52.458;9.998;2023-02-08T09:00:28;-3.20;99.90
16635;DHT22;8431;52.458;9.998;2023-02-08T09:02:55;-3.20;99.90
16635;DHT22;8431;52.458;9.998;2023-02-08T09:05:23;-3.10;99.90
16635;DHT22;8431;52.458;9.998;2023-02-08T09:07:50;-3.10;99.90
16635;DHT22;8431;52.458;9.998;2023-02-08T09:10:17;-3.10;99.90
16635;DHT22;8431;52.458;9.998;2023-02-08T09:12:45;-3.00;99.90
16635;DHT22;8431;52.458;9.998;2023-02-08T09:15:12;-2.90;99.90
16635;DHT22;8431;52.458;9.998;2023-02-08T09:17:39;-2.80;99.90
16635;DHT22;8431;52.458;9.998;2023-02-08T09:20:07;-2.80;99.90
16635;DHT22;8431;52.458;9.998;2023-02-08T09:22:34;-2.70;99.90
16635;DHT22;8431;52.458;9.998;2023-02-08T09:25:05;-2.70;99.90
16635;DHT22;8431;52.458;9.998;2023-02-08T09:27:32;-2.60;99.90
16635;DHT22;8431;52.458;9.998;2023-02-08T09:30:01;-2.50;99.90
16635;DHT22;8431;52.458;9.998;2023-02-08T09:32:30;-2.40;99.90
16635;DHT22;8431;52.458;9.998;2023-02-08T09:34:58;-2.40;99.90
16635;DHT22;8431;52.458;9.998;2023-02-08T09:37:27;-2.30;99.90
16635;DHT22;8431;52.458;9.998;2023-02-08T09:39:54;-2.30;99.90
16635;DHT22;8431;52.458;9.998;2023-02-08T09:42:33;-2.20;99.90
16635;DHT22;8431;52.458;9.998;2023-02-08T09:45:25;-2.10;99.90
16635;DHT22;8431;52.458;9.998;2023-02-08T09:47:59;-2.10;99.90
16635;DHT22;8431;52.458;9.998;2023-02-08T09:50:32;-2.00;99.90
16635;DHT22;8431;52.458;9.998;2023-02-08T09:53:05;-2.00;99.90
16635;DHT22;8431;52.458;9.998;2023-02-08T09:55:40;-1.90;99.90
16635;DHT22;8431;52.458;9.998;2023-02-08T09:58:19;-1.80;99.90
16635;DHT22;8431;52.458;9.998;2023-02-08T10:00:50;-1.80;99.90
16635;DHT22;8431;52.458;9.998;2023-02-08T10:03:28;-1.80;99.90
16635;DHT22;8431;52.458;9.998;2023-02-08T10:05:58;-1.70;99.90
16635;DHT22;8431;52.458;9.998;2023-02-08T10:08:26;-1.60;99.90
16635;DHT22;8431;52.458;9.998;2023-02-08T10:10:58;-1.60;99.90
16635;DHT22;8431;52.458;9.998;2023-02-08T10:13:43;-1.40;99.90
16635;DHT22;8431;52.458;9.998;2023-02-08T10:16:20;-1.30;99.90
16635;DHT22;8431;52.458;9.998;2023-02-08T10:18:57;-1.30;99.90
16635;DHT22;8431;52.458;9.998;2023-02-08T10:21:42;-1.30;99.90
16635;DHT22;8431;52.458;9.998;2023-02-08T10:24:29;-1.20;99.90
16635;DHT22;8431;52.458;9.998;2023-02-08T10:27:06;-1.10;99.90
16635;DHT22;8431;52.458;9.998;2023-02-08T10:30:01;-1.00;99.90
16635;DHT22;8431;52.458;9.998;2023-02-08T10:32:43;-0.90;99.90
16635;DHT22;8431;52.458;9.998;2023-02-08T10:35:12;-0.90;99.90
16635;DHT22;8431;52.458;9.998;2023-02-08T10:37:41;-0.90;99.90
16635;DHT22;8431;52.458;9.998;2023-02-08T10:40:25;-0.70;99.90
16635;DHT22;8431;52.458;9.998;2023-02-08T10:42:59;-0.60;99.90
16635;DHT22;8431;52.458;9.998;2023-02-08T10:45:33;-0.50;99.90
16635;DHT22;8431;52.458;9.998;2023-02-08T10:48:08;-0.50;99.90
16635;DHT22;8431;52.458;9.998;2023-02-08T10:50:39;-0.40;99.90
16635;DHT22;8431;52.458;9.998;2023-02-08T10:53:13;-0.40;99.90
16635;DHT22;8431;52.458;9.998;2023-02-08T10:55:45;-0.30;99.90
16635;DHT22;8431;52.458;9.998;2023-02-08T10:58:48;-0.40;99.90
16635;DHT22;8431;52.458;9.998;2023-02-08T11:01:16;-0.30;99.90
16635;DHT22;8431;52.458;9.998;2023-02-08T11:04:03;-0.20;99.90
16635;DHT22;8431;52.458;9.998;2023-02-08T11:06:34;0.00;99.90
16635;DHT22;8431;52.458;9.998;2023-02-08T11:09:02;0.10;99.90
16635;DHT22;8431;52.458;9.998;2023-02-08T11:11:34;0.10;99.90
16635;DHT22;8431;52.458;9.998;2023-02-08T11:14:07;0.30;99.90
16635;DHT22;8431;52.458;9.998;2023-02-08T11:16:34;0.30;99.90
16635;DHT22;8431;52.458;9.998;2023-02-08T11:19:21;0.30;99.90
16635;DHT22;8431;52.458;9.998;2023-02-08T11:21:51;0.40;99.90
16635;DHT22;8431;52.458;9.998;2023-02-08T11:24:26;0.40;99.90
16635;DHT22;8431;52.458;9.998;2023-02-08T11:26:53;0.60;99.90
16635;DHT22;8431;52.458;9.998;2023-02-08T11:29:23;0.70;99.90
16635;DHT22;8431;52.458;9.998;2023-02-08T11:31:57;0.60;99.90
16635;DHT22;8431;52.458;9.998;2023-02-08T11:34:27;0.50;99.90
16635;DHT22;8431;52.458;9.998;2023-02-08T11:36:56;0.80;99.90
16635;DHT22;8431;52.458;9.998;2023-02-08T11:39:26;1.10;99.90
16635;DHT22;8431;52.458;9.998;2023-02-08T11:41:55;1.20;99.90
16635;DHT22;8431;52.458;9.998;2023-02-08T11:44:29;1.30;99.90
16635;DHT22;8431;52.458;9.998;2023-02-08T11:47:00;1.30;99.90
16635;DHT22;8431;52.458;9.998;2023-02-08T11:49:36;1.50;99.90
16635;DHT22;8431;52.458;9.998;2023-02-08T11:52:05;1.60;99.90
16635;DHT22;8431;52.458;9.998;2023-02-08T11:54:37;1.70;99.90
16635;DHT22;8431;52.458;9.998;2023-02-08T11:57:16;1.80;99.90
16635;DHT22;8431;52.458;9.998;2023-02-08T11:59:45;1.70;99.90
16635;DHT22;8431;52.458;9.998;2023-02-08T12:02:30;1.70;99.90
16635;DHT22;8431;52.458;9.998;2023-02-08T12:05:02;1.60;99.90
16635;DHT22;8431;52.458;9.998;2023-02-08T12:07:48;1.50;99.90
16635;DHT22;8431;52.458;9.998;2023-02-08T12:10:27;1.60;99.90
16635;DHT22;8431;52.458;9.998;2023-02-08T12:13:17;1.70;99.90
16635;DHT22;8431;52.458;9.998;2023-02-08T12:15:51;1.70;99.90
16635;DHT22;8431;52.458;9.998;2023-02-08T12:18:48;1.60;99.90
16635;DHT22;8431;52.458;9.998;2023-02-08T12:21:21;1.60;99.90
16635;DHT22;8431;52.458;9.998;2023-02-08T12:23:52;1.80;99.90
16635;DHT22;8431;52.458;9.998;2023-02-08T12:26:38;1.90;99.90
16635;DHT22;8431;52.458;9.998;2023-02-08T12:29:21;2.00;99.90
16635;DHT22;8431;52.458;9.998;2023-02-08T12:32:15;2.00;99.90
16635;DHT22;8431;52.458;9.998;2023-02-08T12:35:02;2.00;99.90
16635;DHT22;8431;52.458;9.998;2023-02-08T12:37:37;2.00;99.90
16635;DHT22;8431;52.458;9.998;2023-02-08T12:40:33;2.20;99.90
16635;DHT22;8431;52.458;9.998;2023-02-08T12:43:34;2.10;99.90
16635;DHT22;8431;52.458;9.998;2023-02-08T12:49:20;2.40;99.90
16635;DHT22;8431;52.458;9.998;2023-02-08T12:51:57;2.40;99.90
16635;DHT22;8431;52.458;9.998;2023-02-08T12:54:33;2.50;99.90
16635;DHT22;8431;52.458;9.998;2023-02-08T12:57:03;2.50;99.90
16635;DHT22;8431;52.458;9.998;2023-02-08T12:59:35;2.50;99.90
16635;DHT22;8431;52.458;9.998;2023-02-08T13:02:12;2.30;99.90
16635;DHT22;8431;52.458;9.998;2023-02-08T13:04:47;2.30;99.90
16635;DHT22;8431;52.458;9.998;2023-02-08T13:07:18;2.30;99.90
16635;DHT22;8431;52.458;9.998;2023-02-08T13:09:53;2.40;99.90
16635;DHT22;8431;52.458;9.998;2023-02-08T13:12:25;2.50;99.90
16635;DHT22;8431;52.458;9.998;2023-02-08T13:14:54;2.50;99.90
16635;DHT22;8431;52.458;9.998;2023-02-08T13:17:26;2.50;99.90
16635;DHT22;8431;52.458;9.998;2023-02-08T13:19:57;2.40;99.90
16635;DHT22;8431;52.458;9.998;2023-02-08T13:22:30;2.40;99.90
16635;DHT22;8431;52.458;9.998;2023-02-08T13:25:01;2.50;99.90
16635;DHT22;8431;52.458;9.998;2023-02-08T13:27:29;2.50;99.90
16635;DHT22;8431;52.458;9.998;2023-02-08T13:29:56;2.50;99.90
16635;DHT22;8431;52.458;9.998;2023-02-08T13:32:25;2.40;99.90
16635;DHT22;8431;52.458;9.998;2023-02-08T13:34:59;2.50;99.90
16635;DHT22;8431;52.458;9.998;2023-02-08T13:37:29;2.60;99.90
16635;DHT22;8431;52.458;9.998;2023-02-08T13:40:04;2.60;99.90
16635;DHT22;8431;52.458;9.998;2023-02-08T13:42:36;2.60;99.90
16635;DHT22;8431;52.458;9.998;2023-02-08T13:45:09;2.60;99.90
16635;DHT22;8431;52.458;9.998;2023-02-08T13:47:42;2.60;99.90
16635;DHT22;8431;52.458;9.998;2023-02-08T13:50:40;2.70;99.90
16635;DHT22;8431;52.458;9.998;2023-02-08T13:53:07;2.80;99.90
16635;DHT22;8431;52.458;9.998;2023-02-08T13:55:54;2.80;99.90
16635;DHT22;8431;52.458;9.998;2023-02-08T14:01:29;2.90;99.90
16635;DHT22;8431;52.458;9.998;2023-02-08T14:04:29;2.90;99.90
16635;DHT22;8431;52.458;9.998;2023-02-08T14:10:01;2.70;99.90
16635;DHT22;8431;52.458;9.998;2023-02-08T14:12:38;2.60;99.90
16635;DHT22;8431;52.458;9.998;2023-02-08T14:15:27;2.60;99.90
16635;DHT22;8431;52.458;9.998;2023-02-08T14:17:56;2.50;99.90
16635;DHT22;8431;52.458;9.998;2023-02-08T14:20:27;2.60;99.90
16635;DHT22;8431;52.458;9.998;2023-02-08T14:22:59;2.50;99.90
16635;DHT22;8431;52.458;9.998;2023-02-08T14:25:30;2.50;99.90
16635;DHT22;8431;52.458;9.998;2023-02-08T14:28:05;2.50;99.90
16635;DHT22;8431;52.458;9.998;2023-02-08T14:30:35;2.50;99.90
16635;DHT22;8431;52.458;9.998;2023-02-08T14:33:12;2.40;99.90
16635;DHT22;8431;52.458;9.998;2023-02-08T14:35:51;2.40;99.90
16635;DHT22;8431;52.458;9.998;2023-02-08T14:41:46;2.30;99.90
16635;DHT22;8431;52.458;9.998;2023-02-08T14:50:40;2.50;99.90
16635;DHT22;8431;52.458;9.998;2023-02-08T14:53:24;2.60;99.90
16635;DHT22;8431;52.458;9.998;2023-02-08T14:55:57;2.50;99.90
16635;DHT22;8431;52.458;9.998;2023-02-08T14:58:28;2.50;99.90
16635;DHT22;8431;52.458;9.998;2023-02-08T15:01:00;2.40;99.90
16635;DHT22;8431;52.458;9.998;2023-02-08T15:03:30;2.40;99.90
16635;DHT22;8431;52.458;9.998;2023-02-08T15:06:29;2.30;99.90
16635;DHT22;8431;52.458;9.998;2023-02-08T15:09:02;2.30;99.90
16635;DHT22;8431;52.458;9.998;2023-02-08T15:11:32;2.20;99.90
16635;DHT22;8431;52.458;9.998;2023-02-08T15:14:02;2.20;99.90
16635;DHT22;8431;52.458;9.998;2023-02-08T15:16:33;2.20;99.90
16635;DHT22;8431;52.458;9.998;2023-02-08T15:19:02;2.20;99.90
16635;DHT22;8431;52.458;9.998;2023-02-08T15:21:31;2.10;99.90
16635;DHT22;8431;52.458;9.998;2023-02-08T15:24:03;2.00;99.90
16635;DHT22;8431;52.458;9.998;2023-02-08T15:26:32;2.00;99.90
16635;DHT22;8431;52.458;9.998;2023-02-08T15:29:00;2.00;99.90
16635;DHT22;8431;52.458;9.998;2023-02-08T15:31:30;1.90;99.90
16635;DHT22;8431;52.458;9.998;2023-02-08T15:33:59;1.80;99.90
16635;DHT22;8431;52.458;9.998;2023-02-08T15:36:29;1.80;99.90
16635;DHT22;8431;52.458;9.998;2023-02-08T15:39:01;1.70;99.90
16635;DHT22;8431;52.458;9.998;2023-02-08T15:41:30;1.60;99.90
16635;DHT22;8431;52.458;9.998;2023-02-08T15:44:13;1.60;99.90
16635;DHT22;8431;52.458;9.998;2023-02-08T15:46:42;1.50;99.90
16635;DHT22;8431;52.458;9.998;2023-02-08T15:49:13;1.40;99.90
16635;DHT22;8431;52.458;9.998;2023-02-08T15:51:42;1.40;99.90
16635;DHT22;8431;52.458;9.998;2023-02-08T15:54:15;1.30;99.90
16635;DHT22;8431;52.458;9.998;2023-02-08T15:56:47;1.20;99.90
16635;DHT22;8431;52.458;9.998;2023-02-08T15:59:19;1.10;99.90
16635;DHT22;8431;52.458;9.998;2023-02-08T16:01:49;1.10;99.90
16635;DHT22;8431;52.458;9.998;2023-02-08T16:04:16;1.00;99.90
16635;DHT22;8431;52.458;9.998;2023-02-08T16:06:49;0.90;99.90
16635;DHT22;8431;52.458;9.998;2023-02-08T16:09:21;0.90;99.90
16635;DHT22;8431;52.458;9.998;2023-02-08T16:11:50;0.80;99.90
16635;DHT22;8431;52.458;9.998;2023-02-08T16:14:19;0.70;99.90
16635;DHT22;8431;52.458;9.998;2023-02-08T16:16:50;0.60;99.90
16635;DHT22;8431;52.458;9.998;2023-02-08T16:19:23;0.50;99.90
16635;DHT22;8431;52.458;9.998;2023-02-08T16:21:52;0.40;99.90
16635;DHT22;8431;52.458;9.998;2023-02-08T16:24:22;0.30;99.90
16635;DHT22;8431;52.458;9.998;2023-02-08T16:26:55;0.20;99.90
16635;DHT22;8431;52.458;9.998;2023-02-08T16:29:25;0.00;99.90
16635;DHT22;8431;52.458;9.998;2023-02-08T16:31:59;0.00;99.90
16635;DHT22;8431;52.458;9.998;2023-02-08T16:34:31;-0.10;99.90
16635;DHT22;8431;52.458;9.998;2023-02-08T16:37:00;-0.10;99.90
16635;DHT22;8431;52.458;9.998;2023-02-08T16:39:39;-0.10;99.90
16635;DHT22;8431;52.458;9.998;2023-02-08T16:42:23;-0.10;99.90
16635;DHT22;8431;52.458;9.998;2023-02-08T16:45:24;-0.20;99.90